createdAt,value
2019-05-12T00:02:39.645Z,63.59
2019-05-12T00:06:03.065Z,64.14
2019-05-12T00:09:28.204Z,64.74
2019-05-12T00:12:51.168Z,64.97
2019-05-12T00:16:14.318Z,64.98
2019-05-12T00:19:37.805Z,64.67
2019-05-12T00:23:19.923Z,64.67
2019-05-12T00:26:30.430Z,65.11
2019-05-12T00:29:53.856Z,65.80
2019-05-12T00:33:18.014Z,65.73
2019-05-12T00:36:41.292Z,65.80
2019-05-12T00:40:04.602Z,65.82
2019-05-12T00:43:28.186Z,65.68
2019-05-12T00:46:51.440Z,66.30
2019-05-12T00:50:14.686Z,66.04
2019-05-12T00:53:43.259Z,66.88
2019-05-12T00:57:04.369Z,66.94
2019-05-12T01:00:29.370Z,66.68
2019-05-12T01:03:52.348Z,67.36
2019-05-12T01:07:15.409Z,67.16
2019-05-12T01:10:39.237Z,66.46
2019-05-12T01:14:02.551Z,66.98
2019-05-12T01:17:28.094Z,67.61
2019-05-12T01:20:51.260Z,67.69
2019-05-12T01:24:14.350Z,67.44
2019-05-12T01:27:38.081Z,66.76
2019-05-12T01:31:03.455Z,66.41
2019-05-12T01:34:27.777Z,67.33
2019-05-12T01:37:51.602Z,67.89
2019-05-12T01:41:14.708Z,66.55
2019-05-12T01:44:38.312Z,67.42
2019-05-12T01:48:01.569Z,66.08
2019-05-12T01:51:24.631Z,67.48
2019-05-12T01:54:48.304Z,67.46
2019-05-12T01:58:11.604Z,67.31
2019-05-12T02:01:35.766Z,66.90
2019-05-12T02:05:04.102Z,66.18
2019-05-12T02:08:38.362Z,67.28
2019-05-12T02:12:01.986Z,66.91
2019-05-12T02:15:27.663Z,67.73
2019-05-12T02:18:50.268Z,66.86
2019-05-12T02:22:13.315Z,67.22
2019-05-12T02:25:38.021Z,67.25
2019-05-12T02:29:01.347Z,67.13
2019-05-12T02:32:28.426Z,65.73
2019-05-12T02:35:49.379Z,67.24
2019-05-12T02:39:15.042Z,66.40
2019-05-12T02:42:37.768Z,66.93
2019-05-12T02:46:04.918Z,67.35
2019-05-12T02:49:28.240Z,67.37
2019-05-12T02:52:54.449Z,67.07
2019-05-12T02:56:18.843Z,67.69
2019-05-12T02:59:46.226Z,67.37
2019-05-12T03:03:14.414Z,67.05
2019-05-12T03:06:37.322Z,67.16
2019-05-12T03:10:05.030Z,66.48
2019-05-12T03:13:28.049Z,66.92
2019-05-12T03:16:53.883Z,66.58
2019-05-12T03:20:16.164Z,66.34
2019-05-12T03:23:39.196Z,65.97
2019-05-12T03:27:04.392Z,65.75
2019-05-12T03:30:29.458Z,66.98
2019-05-12T03:33:59.730Z,66.47
2019-05-12T03:37:18.646Z,66.63
2019-05-12T03:40:45.023Z,66.79
2019-05-12T03:44:06.836Z,66.14
2019-05-12T03:47:29.922Z,66.47
2019-05-12T03:50:54.152Z,66.72
2019-05-12T03:54:17.457Z,66.23
2019-05-12T03:57:40.736Z,66.69
2019-05-12T04:01:04.872Z,66.87
2019-05-12T04:04:28.178Z,66.94
2019-05-12T04:07:54.487Z,66.77
2019-05-12T04:11:16.138Z,67.39
2019-05-12T04:14:40.455Z,67.13
2019-05-12T04:18:05.656Z,66.55
2019-05-12T04:21:28.781Z,66.59
2019-05-12T04:24:54.908Z,66.83
2019-05-12T04:28:16.799Z,66.73
2019-05-12T04:31:39.844Z,67.11
2019-05-12T04:35:05.042Z,66.75
2019-05-12T04:38:28.265Z,66.04
2019-05-12T04:41:54.983Z,66.22
2019-05-12T04:45:16.744Z,66.46
2019-05-12T04:48:39.762Z,66.19
2019-05-12T04:52:05.258Z,66.89
2019-05-12T04:55:27.741Z,67.05
2019-05-12T04:58:54.314Z,66.92
2019-05-12T05:02:15.716Z,67.11
2019-05-12T05:05:39.094Z,67.42
2019-05-12T05:09:05.272Z,67.45
2019-05-12T05:12:28.496Z,67.99
2019-05-12T05:15:54.370Z,68.93
2019-05-12T05:19:16.834Z,68.24
2019-05-12T05:22:40.405Z,68.34
2019-05-12T05:26:03.883Z,68.06
2019-05-12T05:29:26.878Z,67.06
2019-05-12T05:32:49.986Z,67.10
2019-05-12T05:36:19.575Z,66.51
2019-05-12T05:39:48.221Z,65.86
2019-05-12T05:43:12.405Z,65.85
2019-05-12T05:46:29.680Z,63.98
2019-05-12T05:49:53.983Z,63.18
2019-05-12T05:53:19.603Z,61.10
2019-05-12T05:56:50.723Z,61.99
2019-05-12T06:00:16.417Z,61.08
2019-05-12T06:03:33.896Z,61.34
2019-05-12T06:06:56.899Z,60.01
2019-05-12T06:10:19.954Z,60.26
2019-05-12T06:13:44.305Z,61.58
2019-05-12T06:17:08.712Z,60.16
2019-05-12T06:20:35.451Z,59.18
2019-05-12T06:23:56.917Z,58.52
2019-05-12T06:27:20.942Z,58.48
2019-05-12T06:30:47.663Z,58.15
2019-05-12T06:34:15.370Z,57.23
2019-05-12T06:37:34.936Z,57.97
2019-05-12T06:40:58.456Z,57.77
2019-05-12T06:44:24.069Z,56.73
2019-05-12T06:47:49.631Z,57.70
2019-05-12T06:51:17.035Z,57.41
2019-05-12T06:54:37.196Z,60.21
2019-05-12T06:58:00.244Z,59.58
2019-05-12T07:01:24.159Z,59.58
2019-05-12T07:04:57.245Z,58.67
2019-05-12T07:08:20.087Z,56.44
2019-05-12T07:11:47.570Z,54.26
2019-05-12T07:15:06.167Z,55.22
2019-05-12T07:18:32.827Z,55.23
2019-05-12T07:21:58.803Z,54.99
2019-05-12T07:25:22.873Z,55.86
2019-05-12T07:28:44.235Z,56.73
2019-05-12T07:32:16.442Z,56.77
2019-05-12T07:35:34.321Z,56.48
2019-05-12T07:39:03.945Z,56.37
2019-05-12T07:42:31.538Z,56.54
2019-05-12T07:46:01.831Z,55.90
2019-05-12T07:49:22.030Z,55.39
2019-05-12T07:52:44.311Z,56.28
2019-05-12T07:56:07.433Z,55.80
2019-05-12T07:59:39.522Z,54.66
2019-05-12T08:02:55.492Z,53.37
2019-05-12T08:06:18.653Z,51.71
2019-05-12T08:09:43.211Z,50.22
2019-05-12T08:13:06.596Z,48.77
2019-05-12T08:16:33.640Z,47.38
2019-05-12T08:19:54.761Z,47.14
2019-05-12T08:23:17.784Z,47.47
2019-05-12T08:26:40.901Z,47.36
2019-05-12T08:30:06.313Z,47.19
2019-05-12T08:33:29.415Z,43.62
2019-05-12T08:36:56.728Z,45.12
2019-05-12T08:40:17.654Z,42.83
2019-05-12T08:43:46.194Z,43.61
2019-05-12T08:47:06.024Z,43.52
2019-05-12T08:50:31.600Z,41.81
2019-05-12T08:54:02.171Z,41.21
2019-05-12T08:57:18.998Z,42.66
2019-05-12T09:00:46.533Z,40.36
2019-05-12T09:04:12.155Z,38.79
2019-05-12T09:07:35.797Z,37.28
2019-05-12T09:10:58.804Z,38.09
2019-05-12T09:14:23.760Z,36.90
2019-05-12T09:17:52.457Z,38.92
2019-05-12T09:21:13.888Z,39.60
2019-05-12T09:24:36.768Z,35.68
2019-05-12T09:27:59.971Z,37.92
2019-05-12T09:31:25.367Z,37.82
2019-05-12T09:34:52.890Z,36.95
2019-05-12T09:38:21.439Z,40.29
2019-05-12T09:41:42.610Z,39.53
2019-05-12T09:45:06.144Z,41.24
2019-05-12T09:48:28.277Z,38.54
2019-05-12T09:51:51.276Z,38.53
2019-05-12T09:55:14.808Z,37.34
2019-05-12T09:58:38.008Z,35.74
2019-05-12T10:02:03.528Z,36.07
2019-05-12T10:05:30.504Z,36.07
2019-05-12T10:08:54.943Z,35.55
2019-05-12T10:12:17.300Z,32.39
2019-05-12T10:15:40.387Z,33.65
2019-05-12T10:19:04.101Z,34.24
2019-05-12T10:22:35.752Z,34.69
2019-05-12T10:26:09.465Z,35.46
2019-05-12T10:29:30.630Z,33.18
2019-05-12T10:32:52.461Z,33.45
2019-05-12T10:36:15.558Z,34.38
2019-05-12T10:39:38.588Z,32.13
2019-05-12T10:43:04.161Z,31.54
2019-05-12T10:46:28.627Z,30.03
2019-05-12T10:49:53.883Z,27.45
2019-05-12T10:53:17.988Z,25.74
2019-05-12T10:56:43.683Z,27.12
2019-05-12T11:00:06.689Z,27.45
2019-05-12T11:03:29.761Z,29.90
2019-05-12T11:06:53.787Z,28.08
2019-05-12T11:10:19.997Z,29.17
2019-05-12T11:13:48.332Z,26.01
2019-05-12T11:17:09.539Z,23.65
2019-05-12T11:20:34.289Z,26.96
2019-05-12T11:23:58.103Z,25.35
2019-05-12T11:27:21.309Z,24.22
2019-05-12T11:30:44.462Z,23.79
2019-05-12T11:34:07.476Z,21.70
2019-05-12T11:37:30.597Z,22.81
2019-05-12T11:40:53.928Z,25.26
2019-05-12T11:44:17.429Z,23.79
2019-05-12T11:47:40.623Z,25.14
2019-05-12T11:51:04.028Z,24.62
2019-05-12T11:54:28.092Z,24.37
2019-05-12T11:57:51.365Z,21.80
2019-05-12T12:01:16.360Z,20.60
2019-05-12T12:04:45.281Z,20.51
2019-05-12T12:08:08.433Z,22.05
2019-05-12T12:11:31.535Z,19.37
2019-05-12T12:14:54.780Z,22.37
2019-05-12T12:18:17.788Z,22.98
2019-05-12T12:21:48.064Z,20.46
2019-05-12T12:25:11.024Z,22.66
2019-05-12T12:28:31.271Z,24.16
2019-05-12T12:31:55.463Z,25.53
2019-05-12T12:35:18.675Z,24.80
2019-05-12T12:38:43.917Z,23.83
2019-05-12T12:42:07.175Z,25.26
2019-05-12T12:45:40.628Z,23.89
2019-05-12T12:49:08.622Z,25.89
2019-05-12T12:52:29.284Z,21.70
2019-05-12T12:55:53.758Z,23.42
2019-05-12T12:59:16.961Z,23.92
2019-05-12T13:02:45.115Z,23.92
2019-05-12T13:06:04.974Z,20.96
2019-05-12T13:09:27.972Z,20.56
2019-05-12T13:12:58.672Z,19.58
2019-05-12T13:16:16.071Z,19.07
2019-05-12T13:19:39.128Z,19.64
2019-05-12T13:23:04.049Z,21.68
2019-05-12T13:26:27.206Z,24.03
2019-05-12T13:29:50.264Z,25.63
2019-05-12T13:33:15.103Z,27.62
2019-05-12T13:36:39.390Z,28.66
2019-05-12T13:40:02.729Z,31.10
2019-05-12T13:43:25.810Z,30.07
2019-05-12T13:46:53.691Z,29.93
2019-05-12T13:50:21.644Z,31.71
2019-05-12T13:53:45.456Z,30.46
2019-05-12T13:57:11.824Z,24.85
2019-05-12T14:00:30.144Z,24.56
2019-05-12T14:03:53.730Z,24.63
2019-05-12T14:07:20.442Z,23.81
2019-05-12T14:10:53.283Z,24.00
2019-05-12T14:14:14.132Z,21.61
2019-05-12T14:17:39.352Z,23.36
2019-05-12T14:21:00.858Z,21.48
2019-05-12T14:24:24.001Z,20.67
2019-05-12T14:27:47.329Z,19.30
2019-05-12T14:31:22.761Z,20.08
2019-05-12T14:34:35.598Z,20.33
2019-05-12T14:37:58.592Z,19.83
2019-05-12T14:41:26.318Z,19.98
2019-05-12T14:44:49.680Z,24.06
2019-05-12T14:48:13.683Z,25.89
2019-05-12T14:51:36.682Z,27.38
2019-05-12T14:55:03.337Z,29.23
2019-05-12T14:58:26.016Z,28.89
2019-05-12T15:01:57.452Z,24.00
2019-05-12T15:05:14.378Z,23.56
2019-05-12T15:08:40.399Z,21.69
2019-05-12T15:12:03.568Z,21.03
2019-05-12T15:15:26.739Z,18.96
2019-05-12T15:18:50.242Z,20.67
2019-05-12T15:22:14.784Z,21.54
2019-05-12T15:25:38.215Z,24.73
2019-05-12T15:29:06.916Z,23.53
2019-05-12T15:32:26.391Z,26.11
2019-05-12T15:35:49.555Z,26.85
2019-05-12T15:39:14.005Z,27.52
2019-05-12T15:42:37.249Z,29.80
2019-05-12T15:46:00.511Z,29.66
2019-05-12T15:49:26.004Z,30.63
2019-05-12T15:52:48.877Z,32.01
2019-05-12T15:56:17.574Z,29.08
2019-05-12T15:59:37.456Z,31.38
2019-05-12T16:03:00.522Z,30.81
2019-05-12T16:06:23.539Z,29.23
2019-05-12T16:09:46.640Z,30.66
2019-05-12T16:13:09.831Z,29.81
2019-05-12T16:16:41.998Z,29.70
2019-05-12T16:19:59.180Z,30.71
2019-05-12T16:23:24.935Z,31.87
2019-05-12T16:26:51.853Z,32.44
2019-05-12T16:30:13.947Z,33.34
2019-05-12T16:33:37.276Z,34.25
2019-05-12T16:37:00.290Z,31.79
2019-05-12T16:40:23.893Z,31.43
2019-05-12T16:43:47.709Z,33.11
2019-05-12T16:47:10.721Z,33.33
2019-05-12T16:50:34.550Z,33.72
2019-05-12T16:53:57.774Z,33.41
2019-05-12T16:57:20.894Z,31.57
2019-05-12T17:00:48.960Z,30.73
2019-05-12T17:04:09.071Z,29.35
2019-05-12T17:07:34.332Z,31.16
2019-05-12T17:11:15.153Z,31.02
2019-05-12T17:14:23.533Z,32.77
2019-05-12T17:17:50.763Z,33.27
2019-05-12T17:21:14.122Z,32.59
2019-05-12T17:24:37.417Z,33.63
2019-05-12T17:28:05.503Z,33.78
2019-05-12T17:31:29.887Z,34.62
2019-05-12T17:34:53.341Z,36.16
2019-05-12T17:38:19.671Z,34.57
2019-05-12T17:41:45.009Z,34.72
2019-05-12T17:45:09.297Z,35.33
2019-05-12T17:48:37.143Z,34.78
2019-05-12T17:51:57.438Z,34.46
2019-05-12T17:55:22.405Z,34.59
2019-05-12T17:58:47.586Z,35.70
2019-05-12T18:02:16.404Z,35.27
2019-05-12T18:05:36.583Z,36.58
2019-05-12T18:08:59.735Z,36.13
2019-05-12T18:12:26.727Z,39.11
2019-05-12T18:15:48.265Z,38.97
2019-05-12T18:19:15.424Z,38.58
2019-05-12T18:22:39.354Z,38.29
2019-05-12T18:26:03.131Z,39.32
2019-05-12T18:29:26.723Z,41.15
2019-05-12T18:32:57.662Z,39.94
2019-05-12T18:36:16.042Z,39.33
2019-05-12T18:39:39.241Z,40.60
2019-05-12T18:43:03.954Z,39.10
2019-05-12T18:46:27.748Z,39.75
2019-05-12T18:49:54.063Z,40.58
2019-05-12T19:23:03.616Z,39.11
2019-05-12T19:26:32.920Z,39.62
2019-05-12T19:30:39.543Z,39.77
2019-05-12T20:10:24.090Z,39.40
2019-05-12T20:13:59.305Z,39.39
